Chester-le-Street, United Kingdom
Current Conditions -  °F | °C
As of 1:50 PM on Thursday 18 Dec 2014 (Local Time) from EGNT Reporting Station
Few Clouds Few Clouds  
Wind Chill: 55°   Ceiling: Unl
Heat Index: 55°   Visibility: 6mi
Dew Point: 50°   Wind: 38mph
Humidity: 82%   Direction: 260°W
Pressure: 29.32"   Gusts: 51mph
Location:  54.86°N, 1.59°W
Report Text: EGNT 181350Z 26033G44KT 9999 FEW020 13/10 Q0993
Loading
Personal Weather Stations






























Interactive Weather Map New forecast layout! Learn more

10-Day Weather Forecast

Advertisements
Track Severe Weather on mobile